createdAt,value
2018-12-02T14:16:02.484Z,19.00
2018-12-02T14:18:28.846Z,19.33
2018-12-02T14:20:55.230Z,18.27
2018-12-02T14:23:21.578Z,19.67
2018-12-02T14:25:47.914Z,19.30
2018-12-02T14:28:14.245Z,19.10
2018-12-02T14:30:40.611Z,17.70
2018-12-02T14:33:06.954Z,19.23
2018-12-02T14:35:33.315Z,17.20
2018-12-02T14:37:59.650Z,19.40
2018-12-02T14:40:26.051Z,16.73
2018-12-02T14:42:52.469Z,16.97
2018-12-02T14:45:18.760Z,17.87
2018-12-02T14:47:45.095Z,19.70
2018-12-02T14:50:11.465Z,18.10
2018-12-02T14:52:37.830Z,18.50
2018-12-02T14:55:04.263Z,18.30
2018-12-02T14:57:30.602Z,18.40
2018-12-02T14:59:56.941Z,18.23
2018-12-02T15:02:23.338Z,17.67
2018-12-02T15:04:49.772Z,17.80
2018-12-02T15:07:16.056Z,18.53
2018-12-02T15:09:42.452Z,17.47
2018-12-02T15:12:08.861Z,17.50
2018-12-02T15:14:35.210Z,16.10
2018-12-02T15:17:01.648Z,15.63
2018-12-02T15:19:28.022Z,17.40
2018-12-02T15:21:54.411Z,16.53
2018-12-02T15:24:20.753Z,16.20
2018-12-02T15:26:47.158Z,16.97
2018-12-02T15:29:13.519Z,16.47
2018-12-02T15:31:39.850Z,15.80
2018-12-02T15:34:06.236Z,16.30
2018-12-02T15:36:32.574Z,17.07
2018-12-02T15:38:59.034Z,14.83
2018-12-02T15:41:25.391Z,16.43
2018-12-02T15:43:51.791Z,14.90
2018-12-02T15:46:18.125Z,16.27
2018-12-02T15:48:44.523Z,15.53
2018-12-02T15:51:10.878Z,15.20
2018-12-02T15:53:37.198Z,15.17
2018-12-02T15:56:03.537Z,15.67
2018-12-02T15:58:29.949Z,14.20
2018-12-02T16:00:56.395Z,15.13
2018-12-02T16:03:22.743Z,14.50
2018-12-02T16:05:49.132Z,13.87
2018-12-02T16:08:15.505Z,14.83
2018-12-02T16:10:41.900Z,15.00
2018-12-02T16:13:08.238Z,15.30
2018-12-02T16:15:34.621Z,15.33
2018-12-02T16:18:02.011Z,15.37
2018-12-02T16:20:27.361Z,13.77
2018-12-02T16:22:55.976Z,14.40
2018-12-02T16:25:22.313Z,13.17
2018-12-02T16:27:48.642Z,14.50
2018-12-02T16:30:14.970Z,14.43
2018-12-02T16:32:41.368Z,14.27
2018-12-02T16:35:07.754Z,14.10
2018-12-02T16:37:34.105Z,13.50
2018-12-02T16:40:00.434Z,13.60
2018-12-02T16:42:26.825Z,14.10
2018-12-02T16:44:53.224Z,14.83
2018-12-02T16:47:19.582Z,13.60
2018-12-02T16:49:45.919Z,12.63
2018-12-02T16:52:12.280Z,13.30
2018-12-02T16:54:38.649Z,12.20
2018-12-02T16:57:05.063Z,13.40
2018-12-02T16:59:31.388Z,12.87
2018-12-02T17:01:57.737Z,12.73
2018-12-02T17:04:24.176Z,12.20
2018-12-02T17:06:50.464Z,13.07
2018-12-02T17:09:16.814Z,12.23
2018-12-02T17:11:43.225Z,12.40
2018-12-02T17:14:09.574Z,11.13
2018-12-02T17:16:35.849Z,12.60
2018-12-02T17:19:02.205Z,12.50
2018-12-02T17:21:28.568Z,12.20
2018-12-02T17:23:54.873Z,12.50
2018-12-02T17:26:21.220Z,11.60
2018-12-02T17:28:47.702Z,12.83
2018-12-02T17:31:14.237Z,13.40
2018-12-02T17:33:40.575Z,12.03
2018-12-02T17:36:06.906Z,11.47
2018-12-02T17:38:33.239Z,11.03
2018-12-02T17:40:59.611Z,11.70
2018-12-02T17:43:26.045Z,11.00
2018-12-02T17:45:52.386Z,12.13
2018-12-02T17:48:18.733Z,11.37
2018-12-02T17:50:45.137Z,10.10
2018-12-02T17:53:11.544Z,11.90
2018-12-02T17:55:37.952Z,10.37
2018-12-02T17:58:04.318Z,10.90
2018-12-02T18:00:30.699Z,11.00
2018-12-02T18:02:57.023Z,10.50
2018-12-02T18:05:23.462Z,10.27
2018-12-02T18:07:49.897Z,11.07
2018-12-02T18:10:16.249Z,10.87
2018-12-02T18:12:42.657Z,10.23
2018-12-02T18:15:09.049Z,10.10
2018-12-02T18:17:35.456Z,10.30
2018-12-02T18:20:01.820Z,10.10
2018-12-02T18:22:28.301Z,10.93
2018-12-02T18:24:54.750Z,11.37
2018-12-02T18:27:21.390Z,10.60
2018-12-02T18:29:47.794Z,10.70
2018-12-02T18:32:14.148Z,9.80
2018-12-02T18:34:40.552Z,10.90
2018-12-02T18:37:06.921Z,10.53
2018-12-02T18:39:33.261Z,9.33
2018-12-02T18:41:59.619Z,9.87
2018-12-02T18:44:25.983Z,9.70
2018-12-02T18:46:52.424Z,10.40
2018-12-02T18:49:18.765Z,9.03
2018-12-02T18:51:45.168Z,9.77
2018-12-02T18:54:11.517Z,9.13
2018-12-02T18:56:37.866Z,9.23
2018-12-02T18:59:04.192Z,9.67
2018-12-02T19:01:30.664Z,9.40
2018-12-02T19:03:56.999Z,9.43
2018-12-02T19:06:28.132Z,8.63
2018-12-02T19:08:49.672Z,8.90
2018-12-02T19:11:16.019Z,8.60
2018-12-02T19:13:43.724Z,8.63
2018-12-02T19:16:08.792Z,8.43
2018-12-02T19:18:35.185Z,8.60
2018-12-02T19:21:01.519Z,9.03
2018-12-02T19:23:27.851Z,9.13
2018-12-02T19:25:54.229Z,9.27
2018-12-02T19:28:20.593Z,7.87
2018-12-02T19:30:46.941Z,8.50
2018-12-02T19:33:13.337Z,8.90
2018-12-02T19:35:39.673Z,8.20
2018-12-02T19:38:05.998Z,8.20
2018-12-02T19:40:32.332Z,8.10
2018-12-02T19:42:58.677Z,8.33
2018-12-02T19:45:25.085Z,8.53
2018-12-02T19:47:51.415Z,8.60
2018-12-02T19:50:17.757Z,8.23
2018-12-02T19:52:44.094Z,8.90
2018-12-02T19:55:10.503Z,8.53
2018-12-02T19:57:36.871Z,8.17
2018-12-02T20:00:03.250Z,7.97
2018-12-02T20:02:29.563Z,8.33
2018-12-02T20:04:55.914Z,8.17
2018-12-02T20:07:22.452Z,8.63
2018-12-02T20:09:48.823Z,7.93
2018-12-02T20:12:15.216Z,7.77
2018-12-02T20:14:41.629Z,8.50
2018-12-02T20:17:07.949Z,7.83
2018-12-02T20:19:34.360Z,8.20
2018-12-02T20:22:00.663Z,8.20
2018-12-02T20:24:26.992Z,7.37
2018-12-02T20:26:53.340Z,8.03
2018-12-02T20:29:19.660Z,7.80
2018-12-02T20:31:46.012Z,7.80
2018-12-02T20:34:12.397Z,7.97
2018-12-02T20:36:38.796Z,7.70
2018-12-02T20:39:05.128Z,9.10
2018-12-02T20:41:31.471Z,8.23
2018-12-02T20:43:57.856Z,7.40
2018-12-02T20:46:24.188Z,7.83
2018-12-02T20:48:50.584Z,7.93
2018-12-02T20:51:16.912Z,8.43
2018-12-02T20:53:43.345Z,7.40
2018-12-02T20:56:09.637Z,7.67
2018-12-02T20:58:36.026Z,8.20
2018-12-02T21:01:02.381Z,8.00
2018-12-02T21:03:28.750Z,8.60
2018-12-02T21:05:55.042Z,8.30
2018-12-02T21:08:21.372Z,8.60
2018-12-02T21:10:47.715Z,7.80
2018-12-02T21:13:14.091Z,7.80
2018-12-02T21:15:40.469Z,7.73
2018-12-02T21:18:06.840Z,7.40
2018-12-02T21:20:33.185Z,7.50
2018-12-02T21:22:59.600Z,8.20
2018-12-02T21:25:25.928Z,8.27
2018-12-02T21:27:52.282Z,7.50
2018-12-02T21:30:18.660Z,7.17
2018-12-02T21:32:44.933Z,7.90
2018-12-02T21:35:11.330Z,8.73
2018-12-02T21:37:37.673Z,7.43
2018-12-02T21:40:04.106Z,7.33
2018-12-02T21:42:30.515Z,7.07
2018-12-02T21:44:56.842Z,7.80
2018-12-02T21:47:23.251Z,7.50
2018-12-02T21:49:49.590Z,8.00
2018-12-02T21:52:15.998Z,7.97
2018-12-02T21:54:42.326Z,7.97
2018-12-02T21:57:08.742Z,8.70
2018-12-02T21:59:35.080Z,8.00
2018-12-02T22:02:01.461Z,7.30
2018-12-02T22:04:27.841Z,7.77
2018-12-02T22:06:54.200Z,7.50
2018-12-02T22:09:20.596Z,7.77
2018-12-02T22:11:46.895Z,8.37
2018-12-02T22:14:13.344Z,8.03
2018-12-02T22:16:39.687Z,8.60
2018-12-02T22:19:06.084Z,8.60
2018-12-02T22:21:32.430Z,8.10
2018-12-02T22:24:01.272Z,7.87
2018-12-02T22:26:25.180Z,8.40
2018-12-02T22:28:51.605Z,8.10
2018-12-02T22:31:18.074Z,6.50
2018-12-02T22:33:44.421Z,7.67
2018-12-02T22:36:13.908Z,7.77
2018-12-02T22:38:37.272Z,8.90
2018-12-02T22:41:03.659Z,8.27
2018-12-02T22:43:30.010Z,7.27
2018-12-02T22:45:56.361Z,7.90
2018-12-02T22:48:22.704Z,7.90
2018-12-02T22:50:49.043Z,7.60
2018-12-02T22:53:15.396Z,8.00
2018-12-02T22:55:41.724Z,7.10
2018-12-02T22:58:08.125Z,7.40
2018-12-02T23:00:34.460Z,8.73
2018-12-02T23:03:00.879Z,7.87
2018-12-02T23:05:27.212Z,7.37
2018-12-02T23:07:53.546Z,7.40
2018-12-02T23:10:19.917Z,8.03
2018-12-02T23:12:46.230Z,8.93
2018-12-02T23:15:12.640Z,7.40
2018-12-02T23:17:39.067Z,7.80
2018-12-02T23:20:05.512Z,8.00
2018-12-02T23:22:31.816Z,8.10
2018-12-02T23:24:58.171Z,8.20
2018-12-02T23:27:24.523Z,7.43
2018-12-02T23:29:50.891Z,7.33
2018-12-02T23:32:17.219Z,7.40
2018-12-02T23:34:43.545Z,7.60
2018-12-02T23:37:09.879Z,6.40
2018-12-02T23:39:36.338Z,8.43
2018-12-02T23:42:02.674Z,7.70
2018-12-02T23:44:29.086Z,7.80
2018-12-02T23:46:55.422Z,7.53
2018-12-02T23:49:21.818Z,7.60
2018-12-02T23:51:48.147Z,7.80
2018-12-02T23:54:14.476Z,7.50
2018-12-02T23:56:40.955Z,8.00
2018-12-02T23:59:07.311Z,7.20
